Time;durP1;ratioP1;P1;durP2;ratioP2;P2;SDS_P1;SDS_P2;PMS_P1;PMS_P2;Temp;Humidity;BMP_temperature;BMP_pressure;BME280_temperature;BME280_humidity;BME280_pressure;Samples;Min_cycle;Max_cycle;Signal;HPM_P1;HPM_P2
2022/03/17 00:00:16;;;;;;;5.80;3.20;;;;;;;-0.97;44.44;102198.70;116978;1189;21852;-49
2022/03/17 00:02:44;;;;;;;7.30;3.50;;;;;;;-0.96;44.65;102199.31;116951;1189;22935;-48
2022/03/17 00:05:13;;;;;;;8.50;3.70;;;;;;;-0.91;44.75;102191.00;116990;1189;22578;-48
2022/03/17 00:07:42;;;;;;;6.60;3.50;;;;;;;-0.87;44.63;102188.82;116940;1188;23454;-48
2022/03/17 00:10:16;;;;;;;4.80;2.50;;;;;;;-0.84;44.49;102185.93;116940;1188;22834;-60
2022/03/17 00:13:01;;;;;;;5.50;3.10;;;;;;;-0.86;44.61;102185.10;116983;1184;23478;-60
2022/03/17 00:15:31;;;;;;;7.40;3.80;;;;;;;-0.91;44.78;102186.86;116938;1184;21964;-53
2022/03/17 00:18:00;;;;;;;5.70;3.00;;;;;;;-0.94;44.49;102188.39;116951;1189;23033;-60
2022/03/17 00:20:29;;;;;;;6.50;3.30;;;;;;;-0.96;44.70;102188.83;116966;1189;23456;-48
2022/03/17 00:22:58;;;;;;;8.70;3.00;;;;;;;-0.98;44.58;102192.98;116930;1189;23505;-60
2022/03/17 00:25:29;;;;;;;8.50;3.40;;;;;;;-1.01;44.36;102195.16;116876;1184;24169;-48
2022/03/17 00:27:59;;;;;;;6.50;3.30;;;;;;;-1.05;44.47;102189.96;116910;1189;23523;-49
2022/03/17 00:30:27;;;;;;;5.10;2.90;;;;;;;-1.11;44.58;102195.96;116978;1188;22932;-59
2022/03/17 00:32:56;;;;;;;6.70;3.30;;;;;;;-1.16;44.43;102194.73;117046;1188;23456;-59
2022/03/17 00:35:38;;;;;;;8.10;3.70;;;;;;;-1.21;44.45;102194.29;116898;1188;23079;-49
2022/03/17 00:38:09;;;;;;;7.10;3.50;;;;;;;-1.19;44.44;102197.16;117080;1189;23592;-59
2022/03/17 00:40:39;;;;;;;6.40;3.30;;;;;;;-1.18;44.50;102198.95;116949;1189;23479;-60
2022/03/17 00:43:09;;;;;;;5.80;3.20;;;;;;;-1.18;44.66;102198.60;116950;1188;22919;-53
2022/03/17 00:45:40;;;;;;;12.00;3.90;;;;;;;-1.17;44.55;102201.05;116979;1189;23484;-48
2022/03/17 00:48:09;;;;;;;5.60;3.50;;;;;;;-1.18;44.66;102200.50;116971;1188;23557;-60
2022/03/17 00:50:38;;;;;;;8.50;3.90;;;;;;;-1.20;44.69;102204.16;116994;1188;21849;-48
2022/03/17 00:53:07;;;;;;;8.80;3.80;;;;;;;-1.22;44.71;102202.49;116961;1188;23468;-48
2022/03/17 00:55:37;;;;;;;7.00;3.90;;;;;;;-1.21;44.75;102204.76;116939;1189;21857;-59
2022/03/17 00:58:06;;;;;;;8.30;3.30;;;;;;;-1.20;44.86;102204.48;117056;1188;22642;-49
2022/03/17 01:00:34;;;;;;;6.70;3.60;;;;;;;-1.23;44.75;102207.77;116949;1188;23641;-49
2022/03/17 01:03:05;;;;;;;7.90;3.40;;;;;;;-1.25;44.76;102207.24;116966;1188;22931;-49
2022/03/17 01:05:34;;;;;;;6.40;3.50;;;;;;;-1.24;44.76;102211.81;116993;1188;21854;-58
2022/03/17 01:08:03;;;;;;;7.30;2.90;;;;;;;-1.21;44.98;102208.24;116982;1192;22646;-48
2022/03/17 01:10:32;;;;;;;6.40;3.30;;;;;;;-1.18;45.05;102205.83;116975;1188;21846;-48
2022/03/17 01:13:21;;;;;;;6.10;3.40;;;;;;;-1.15;44.95;102209.49;116888;1188;21885;-48
2022/03/17 01:15:50;;;;;;;7.40;3.80;;;;;;;-1.12;45.02;102207.62;117014;1189;21854;-48
2022/03/17 01:18:21;;;;;;;6.10;3.50;;;;;;;-1.11;45.02;102207.48;116944;1188;23590;-48
2022/03/17 01:21:09;;;;;;;6.60;3.70;;;;;;;-1.13;45.00;102209.63;116920;1189;23450;-59
2022/03/17 01:23:40;;;;;;;9.70;3.80;;;;;;;-1.14;44.94;102208.52;116972;1188;21856;-48
2022/03/17 01:26:09;;;;;;;7.10;3.60;;;;;;;-1.15;44.95;102213.09;116951;1188;23453;-48
2022/03/17 01:28:37;;;;;;;9.00;3.70;;;;;;;-1.15;44.95;102211.00;116958;1188;24169;-59
2022/03/17 01:31:06;;;;;;;7.40;3.70;;;;;;;-1.16;45.02;102213.56;117080;1184;24175;-54
2022/03/17 01:33:35;;;;;;;6.60;3.30;;;;;;;-1.17;45.02;102211.25;116979;1188;21864;-60
2022/03/17 01:36:03;;;;;;;7.40;3.70;;;;;;;-1.18;45.12;102217.04;117025;1188;23472;-48
2022/03/17 01:38:34;;;;;;;6.90;3.50;;;;;;;-1.21;44.87;102217.02;116903;1189;23462;-49
2022/03/17 01:41:02;;;;;;;7.10;3.80;;;;;;;-1.24;44.94;102217.67;116963;1185;21899;-49
2022/03/17 01:43:31;;;;;;;8.10;3.30;;;;;;;-1.27;44.92;102222.13;116971;1188;23462;-48
2022/03/17 01:45:59;;;;;;;6.00;3.40;;;;;;;-1.30;45.01;102228.46;116890;1189;21856;-48
2022/03/17 01:48:29;;;;;;;7.80;3.80;;;;;;;-1.32;45.06;102229.71;116797;1189;22551;-49
2022/03/17 01:50:59;;;;;;;9.10;3.60;;;;;;;-1.35;45.03;102232.83;116753;1189;23483;-49
2022/03/17 01:53:28;;;;;;;6.50;3.90;;;;;;;-1.39;44.98;102236.17;116942;1189;21852;-60
2022/03/17 01:55:58;;;;;;;6.60;3.70;;;;;;;-1.44;45.00;102236.70;116998;1188;23491;-49
2022/03/17 01:58:26;;;;;;;7.90;3.90;;;;;;;-1.47;44.89;102236.63;116927;1188;21909;-60
2022/03/17 02:00:55;;;;;;;9.20;4.50;;;;;;;-1.53;45.00;102234.39;116976;1188;22919;-60
2022/03/17 02:03:26;;;;;;;6.70;4.20;;;;;;;-1.61;44.99;102239.36;116892;1190;22923;-48
2022/03/17 02:05:55;;;;;;;9.50;4.30;;;;;;;-1.72;45.27;102242.05;117008;1183;22929;-51
2022/03/17 02:08:27;;;;;;;6.30;4.20;;;;;;;-1.77;45.21;102246.55;116955;1188;21846;-48
2022/03/17 02:13:55;;;;;;;7.80;4.10;;;;;;;-1.82;45.21;102255.52;116793;1189;23468;-59
2022/03/17 02:16:24;;;;;;;6.20;3.70;;;;;;;-1.83;45.09;102255.45;116955;1189;23475;-48
2022/03/17 02:18:53;;;;;;;7.70;4.00;;;;;;;-1.83;45.31;102257.17;116879;1188;21861;-60
2022/03/17 02:21:22;;;;;;;9.10;4.50;;;;;;;-1.82;45.26;102260.52;116985;1188;23478;-49
2022/03/17 02:26:39;;;;;;;6.30;3.70;;;;;;;-1.85;45.14;102259.77;116960;1188;23507;-49
2022/03/17 02:29:08;;;;;;;7.40;4.20;;;;;;;-1.86;45.45;102260.39;116769;1189;21909;-49
2022/03/17 02:31:38;;;;;;;8.00;3.90;;;;;;;-1.87;45.29;102263.77;116612;1190;23588;-59
2022/03/17 02:34:09;;;;;;;11.10;4.60;;;;;;;-1.85;45.28;102263.42;116692;1189;22967;-48
2022/03/17 02:36:47;;;;;;;8.70;4.60;;;;;;;-1.78;45.36;102260.24;116735;1189;22635;-60
2022/03/17 02:39:16;;;;;;;7.60;3.80;;;;;;;-1.74;45.48;102264.98;116906;1185;23456;-56
2022/03/17 02:41:48;;;;;;;8.00;3.70;;;;;;;-1.73;45.30;102266.45;116924;1189;21857;-48
2022/03/17 02:44:17;;;;;;;8.30;4.60;;;;;;;-1.70;45.35;102271.96;116963;1188;24179;-49
2022/03/17 02:46:46;;;;;;;10.00;4.60;;;;;;;-1.69;45.12;102275.63;116938;1187;24191;-60
2022/03/17 02:49:18;;;;;;;9.70;4.50;;;;;;;-1.73;45.18;102278.65;116904;1189;22322;-48
2022/03/17 02:51:47;;;;;;;8.60;4.00;;;;;;;-1.80;45.16;102285.63;116905;1189;22327;-59
2022/03/17 02:54:16;;;;;;;5.70;3.70;;;;;;;-1.86;45.13;102286.24;116671;1190;21932;-58
2022/03/17 02:56:44;;;;;;;9.80;4.20;;;;;;;-1.89;45.23;102294.81;116923;1185;23456;-48
2022/03/17 02:59:14;;;;;;;7.80;4.00;;;;;;;-1.91;45.12;102291.84;116776;1189;22828;-60
2022/03/17 03:01:43;;;;;;;8.10;3.90;;;;;;;-1.90;45.36;102298.48;116860;1188;23452;-60
2022/03/17 03:04:16;;;;;;;7.30;4.50;;;;;;;-1.87;45.45;102300.39;116919;1188;21842;-60
2022/03/17 03:06:46;;;;;;;8.30;4.10;;;;;;;-1.85;45.44;102298.65;116901;1184;23558;-49
2022/03/17 03:09:14;;;;;;;9.30;5.00;;;;;;;-1.83;45.40;102299.15;116886;1189;22514;-49
2022/03/17 03:11:45;;;;;;;7.40;4.40;;;;;;;-1.85;45.20;102301.94;116749;1186;21916;-48
2022/03/17 03:14:13;;;;;;;8.80;4.40;;;;;;;-1.91;45.38;102303.61;117347;1186;21994;-60
2022/03/17 03:16:42;;;;;;;9.50;4.80;;;;;;;-1.96;45.15;102305.48;116791;1190;21860;-48
2022/03/17 03:19:12;;;;;;;9.90;4.70;;;;;;;-2.01;45.29;102310.66;116972;1189;21887;-60
2022/03/17 03:21:43;;;;;;;9.80;4.50;;;;;;;-2.06;45.12;102314.09;116818;1189;22516;-59
2022/03/17 03:24:13;;;;;;;8.00;4.20;;;;;;;-2.14;45.12;102312.17;116786;1189;21856;-48
2022/03/17 03:26:41;;;;;;;9.70;5.60;;;;;;;-2.21;45.15;102315.11;116823;1189;21865;-49
2022/03/17 03:31:41;;;;;;;;;;;;;;;-2.26;45.14;102321.99;116847;1189;23548;-60
2022/03/17 03:34:09;;;;;;;8.10;5.00;;;;;;;-2.27;45.28;102327.41;117064;1185;21853;-60
2022/03/17 03:39:26;;;;;;;9.40;4.40;;;;;;;-2.27;45.29;102333.80;116792;1189;21864;-59
2022/03/17 03:41:55;;;;;;;8.30;4.00;;;;;;;-2.26;45.37;102340.77;116913;1189;23456;-59
2022/03/17 03:44:24;;;;;;;8.00;4.50;;;;;;;-2.25;45.35;102340.42;116834;1189;21860;-48
2022/03/17 03:46:53;;;;;;;9.70;5.20;;;;;;;-2.24;45.41;102347.55;117044;1188;21866;-60
2022/03/17 03:49:21;;;;;;;9.50;4.90;;;;;;;-2.24;45.40;102350.34;116946;1188;21855;-49
2022/03/17 03:51:50;;;;;;;8.80;4.50;;;;;;;-2.24;45.42;102351.35;116879;1188;23481;-60
2022/03/17 03:54:19;;;;;;;8.80;5.10;;;;;;;-2.25;45.45;102354.20;116945;1188;21853;-60
2022/03/17 03:56:52;;;;;;;11.90;4.90;;;;;;;-2.26;45.41;102359.96;116858;1188;24320;-60
2022/03/17 03:59:25;;;;;;;9.70;4.70;;;;;;;-2.28;45.43;102358.98;116945;1188;21851;-61
2022/03/17 04:02:01;;;;;;;8.60;4.60;;;;;;;-2.31;45.43;102355.86;116854;1189;23651;-49
2022/03/17 04:04:31;;;;;;;8.50;4.90;;;;;;;-2.30;45.35;102355.75;116912;1189;21861;-60
2022/03/17 04:07:04;;;;;;;8.20;4.40;;;;;;;-2.32;45.43;102356.77;116780;1189;21860;-48
2022/03/17 04:09:35;;;;;;;9.10;4.50;;;;;;;-2.36;45.34;102361.00;116909;1188;22839;-60
2022/03/17 04:12:05;;;;;;;8.30;4.60;;;;;;;-2.41;45.41;102364.45;116891;1188;21899;-48
2022/03/17 04:14:34;;;;;;;9.80;4.80;;;;;;;-2.43;45.46;102368.06;116888;1188;23487;-49
2022/03/17 04:17:05;;;;;;;8.90;4.70;;;;;;;-2.42;45.54;102365.02;116977;1189;21857;-60
2022/03/17 04:19:35;;;;;;;9.30;4.70;;;;;;;-2.41;45.59;102365.60;116884;1189;22930;-48
2022/03/17 04:22:04;;;;;;;7.80;4.70;;;;;;;-2.42;45.57;102372.77;116924;1188;21904;-50
2022/03/17 04:24:37;;;;;;;8.00;4.60;;;;;;;-2.47;45.47;102378.95;116910;1188;23459;-60
2022/03/17 04:27:06;;;;;;;8.40;4.40;;;;;;;-2.51;45.41;102374.69;116942;1188;21888;-61
2022/03/17 04:29:35;;;;;;;7.70;4.40;;;;;;;-2.58;45.38;102371.93;116869;1190;22017;-49
2022/03/17 04:32:04;;;;;;;12.30;5.80;;;;;;;-2.61;45.46;102380.15;116920;1188;21908;-60
2022/03/17 04:34:33;;;;;;;10.10;5.10;;;;;;;-2.58;45.60;102376.09;116920;1189;21867;-49
2022/03/17 04:37:01;;;;;;;10.30;4.70;;;;;;;-2.54;45.68;102381.33;116856;1189;24179;-61
2022/03/17 04:39:30;;;;;;;13.80;6.50;;;;;;;-2.54;45.63;102379.63;116742;1180;21949;-62
2022/03/17 04:41:59;;;;;;;16.10;5.40;;;;;;;-2.47;45.87;102384.98;116926;1188;21996;-60
2022/03/17 04:44:28;;;;;;;8.90;4.60;;;;;;;-2.44;45.86;102389.16;116878;1189;23479;-49
2022/03/17 04:46:57;;;;;;;13.20;5.30;;;;;;;-2.42;45.88;102391.18;116931;1189;23474;-60
2022/03/17 04:49:25;;;;;;;10.80;4.60;;;;;;;-2.42;45.78;102389.59;116927;1188;23492;-61
2022/03/17 04:51:54;;;;;;;9.80;5.00;;;;;;;-2.42;45.73;102389.08;116893;1189;23456;-48
2022/03/17 04:54:23;;;;;;;9.90;4.90;;;;;;;-2.39;45.98;102387.98;116887;1189;22932;-48
2022/03/17 04:56:52;;;;;;;10.90;5.10;;;;;;;-2.28;46.13;102387.36;116882;1189;22092;-49
2022/03/17 04:59:21;;;;;;;18.10;5.70;;;;;;;-2.17;46.29;102387.47;116806;1190;23486;-49
2022/03/17 05:01:50;;;;;;;19.80;5.80;;;;;;;-2.05;46.28;102388.27;116962;1189;24176;-61
2022/03/17 05:04:20;;;;;;;13.90;4.60;;;;;;;-1.95;46.30;102396.39;116811;1187;24256;-60
2022/03/17 05:06:49;;;;;;;8.90;5.00;;;;;;;-1.87;46.22;102396.42;116925;1189;22010;-49
2022/03/17 05:09:17;;;;;;;11.60;5.80;;;;;;;-1.84;46.21;102403.23;116955;1188;21846;-60
2022/03/17 05:11:46;;;;;;;11.90;5.40;;;;;;;-1.81;46.10;102407.21;116750;1190;23464;-61
2022/03/17 05:14:15;;;;;;;13.90;4.90;;;;;;;-1.76;46.30;102408.90;116982;1189;23475;-61
2022/03/17 05:16:44;;;;;;;9.40;5.50;;;;;;;-1.71;46.38;102410.67;116907;1189;23478;-50
2022/03/17 05:19:13;;;;;;;10.90;5.20;;;;;;;-1.66;46.31;102406.90;116854;1184;21851;-49
2022/03/17 05:21:45;;;;;;;13.20;4.90;;;;;;;-1.60;46.33;102405.40;116903;1189;23638;-49
2022/03/17 05:24:13;;;;;;;10.70;6.10;;;;;;;-1.55;46.53;102409.34;118286;1189;23486;-60
2022/03/17 05:26:45;;;;;;;12.70;5.60;;;;;;;-1.50;46.32;102409.20;116946;1188;23489;-49
2022/03/17 05:29:13;;;;;;;17.90;6.10;;;;;;;-1.39;46.48;102409.60;116905;1188;21952;-60
2022/03/17 05:31:42;;;;;;;11.00;5.70;;;;;;;-1.27;46.38;102414.89;116980;1188;21861;-50
2022/03/17 05:34:11;;;;;;;12.70;6.60;;;;;;;-1.18;46.79;102413.25;116966;1188;21896;-49
2022/03/17 05:36:40;;;;;;;15.20;6.80;;;;;;;-1.07;46.71;102416.25;116976;1188;21863;-50
2022/03/17 05:39:08;;;;;;;10.70;5.40;;;;;;;-0.96;46.78;102414.73;116966;1185;23698;-49
2022/03/17 05:41:37;;;;;;;10.50;5.70;;;;;;;-0.86;46.61;102416.29;116914;1189;22932;-60
2022/03/17 05:44:07;;;;;;;13.50;6.30;;;;;;;-0.76;46.85;102420.92;117016;1189;23479;-49
2022/03/17 05:46:36;;;;;;;10.40;5.70;;;;;;;-0.65;46.80;102421.61;116960;1188;23583;-49
2022/03/17 05:49:06;;;;;;;10.70;5.70;;;;;;;-0.55;46.92;102421.04;116996;1189;23642;-60
2022/03/17 05:51:34;;;;;;;10.30;5.90;;;;;;;-0.43;46.87;102422.88;116874;1188;21848;-49
2022/03/17 05:54:03;;;;;;;11.10;5.80;;;;;;;-0.33;46.84;102430.25;116887;1188;24153;-60
2022/03/17 05:56:32;;;;;;;11.40;6.00;;;;;;;-0.25;46.89;102432.15;116903;1188;24280;-60
2022/03/17 05:59:01;;;;;;;14.00;6.50;;;;;;;-0.14;46.89;102433.56;116965;1188;24172;-60
2022/03/17 06:01:30;;;;;;;11.60;5.80;;;;;;;-0.03;46.87;102435.15;116930;1188;22539;-61
2022/03/17 06:03:59;;;;;;;11.60;6.50;;;;;;;0.07;46.93;102435.36;117185;1188;22912;-50
2022/03/17 06:06:27;;;;;;;11.40;6.50;;;;;;;0.20;47.27;102433.95;116977;1188;23554;-61
2022/03/17 06:09:16;;;;;;;11.90;6.80;;;;;;;0.34;47.28;102435.02;116871;1188;23547;-49
2022/03/17 06:11:45;;;;;;;11.80;6.50;;;;;;;0.43;47.28;102432.93;116952;1189;22995;-61
2022/03/17 06:14:14;;;;;;;11.10;7.20;;;;;;;0.55;47.43;102434.89;116708;1189;23458;-61
2022/03/17 06:16:43;;;;;;;14.00;6.80;;;;;;;0.69;47.24;102432.31;116792;1189;23560;-50
2022/03/17 06:19:12;;;;;;;10.90;6.70;;;;;;;0.84;47.30;102430.63;116800;1189;22350;-50
2022/03/17 06:21:41;;;;;;;12.90;7.00;;;;;;;0.97;47.03;102435.52;116761;1189;23566;-61
2022/03/17 06:24:09;;;;;;;13.20;8.10;;;;;;;1.07;47.16;102429.91;116827;1189;24155;-61
2022/03/17 06:26:39;;;;;;;9.80;5.80;;;;;;;1.21;47.36;102434.39;116900;1188;21870;-61
2022/03/17 06:29:09;;;;;;;9.70;5.90;;;;;;;1.37;47.39;102432.68;116878;1188;21960;-50
2022/03/17 06:31:39;;;;;;;;;;;;;;;1.52;47.40;102432.86;116731;1189;22719;-61
2022/03/17 06:34:08;;;;;;;12.20;6.20;;;;;;;1.63;47.34;102435.61;116900;1189;21942;-61
2022/03/17 06:36:39;;;;;;;9.70;6.50;;;;;;;1.77;47.49;102440.86;116827;1188;23558;-61
2022/03/17 06:39:09;;;;;;;9.80;6.30;;;;;;;1.92;47.53;102439.11;116777;1189;24162;-52
2022/03/17 06:41:38;;;;;;;9.60;6.60;;;;;;;2.09;47.34;102432.80;116872;1188;21938;-61
2022/03/17 06:44:07;;;;;;;11.70;6.70;;;;;;;2.29;47.62;102441.81;116872;1188;23582;-60
2022/03/17 06:46:35;;;;;;;11.30;6.70;;;;;;;2.49;47.72;102431.98;116886;1188;25729;-51
2022/03/17 06:49:05;;;;;;;12.10;6.70;;;;;;;2.70;47.74;102431.16;116879;1188;22319;-51
2022/03/17 06:51:33;;;;;;;11.40;7.00;;;;;;;2.90;47.75;102433.27;116921;1188;23645;-50
2022/03/17 06:54:03;;;;;;;9.80;6.10;;;;;;;3.04;47.61;102428.27;116840;1188;24182;-50
2022/03/17 06:56:32;;;;;;;12.80;5.90;;;;;;;3.16;47.45;102433.56;116817;1188;21917;-60
2022/03/17 06:59:01;;;;;;;9.50;6.10;;;;;;;3.27;47.44;102437.77;117060;1188;23560;-61
2022/03/17 07:01:30;;;;;;;10.60;5.50;;;;;;;3.35;47.48;102436.95;116933;1188;23505;-50
2022/03/17 07:04:00;;;;;;;9.70;6.00;;;;;;;3.49;47.48;102440.23;116744;1189;21984;-61
2022/03/17 07:06:30;;;;;;;9.80;5.70;;;;;;;3.62;47.54;102441.73;116848;1189;22648;-50
2022/03/17 07:09:05;;;;;;;11.90;5.60;;;;;;;3.81;47.60;102442.66;116840;1189;22921;-50
2022/03/17 07:11:37;;;;;;;10.50;5.70;;;;;;;4.02;47.80;102442.46;116694;1189;22887;-50
2022/03/17 07:14:08;;;;;;;9.00;5.10;;;;;;;4.27;47.77;102442.39;116826;1189;24033;-62
2022/03/17 07:16:43;;;;;;;8.10;4.80;;;;;;;4.51;47.69;102449.77;116941;1188;21853;-50
2022/03/17 07:19:17;;;;;;;8.60;4.90;;;;;;;4.73;47.92;102449.71;116897;1188;23603;-50
2022/03/17 07:21:46;;;;;;;11.90;5.00;;;;;;;4.89;47.61;102445.57;116894;1189;24306;-48
2022/03/17 07:24:17;;;;;;;9.20;4.60;;;;;;;5.02;47.58;102439.19;116900;1188;23586;-53
2022/03/17 07:26:59;;;;;;;10.10;4.40;;;;;;;5.13;47.31;102441.20;116942;1188;21908;-63
2022/03/17 07:29:33;;;;;;;165.00;15.80;;;;;;;5.16;47.02;102441.16;116901;1188;21856;-49
2022/03/17 07:32:05;;;;;;;19.60;4.70;;;;;;;5.15;46.90;102437.65;116887;1189;22977;-63
2022/03/17 07:34:34;;;;;;;;;;;;;;;5.17;47.01;102433.55;116879;1189;23448;-49
2022/03/17 07:37:05;;;;;;;12.70;6.60;;;;;;;5.33;47.31;102436.48;116959;1189;21857;-48
2022/03/17 07:39:34;;;;;;;18.30;8.40;;;;;;;5.53;47.47;102433.12;116881;1189;21857;-63
2022/03/17 07:42:04;;;;;;;11.10;5.70;;;;;;;5.74;47.61;102435.89;116858;1188;23460;-49
2022/03/17 07:44:35;;;;;;;6.90;4.50;;;;;;;5.86;46.94;102433.23;116881;1188;23727;-60
2022/03/17 07:47:08;;;;;;;13.80;6.10;;;;;;;5.78;46.89;102436.92;116907;1188;23612;-60
2022/03/17 07:49:37;;;;;;;7.80;3.10;;;;;;;5.79;46.76;102436.62;116932;1188;24290;-51
2022/03/17 07:52:07;;;;;;;6.80;3.50;;;;;;;5.73;46.63;102433.59;116863;1188;23019;-48
2022/03/17 07:55:25;;;;;;;8.80;3.30;;;;;;;5.72;46.68;102431.27;116840;1188;23481;-60
2022/03/17 07:58:02;;;;;;;5.90;3.00;;;;;;;5.84;46.48;102436.80;118511;1189;21866;-51
2022/03/17 08:00:42;;;;;;;10.40;4.30;;;;;;;5.87;46.45;102429.45;116930;1186;22633;-61
2022/03/17 08:03:22;;;;;;;11.70;5.30;;;;;;;5.98;46.49;102431.61;116874;1189;21888;-62
2022/03/17 08:06:00;;;;;;;10.50;5.20;;;;;;;6.13;46.47;102428.42;116981;1188;23476;-50
2022/03/17 08:08:41;;;;;;;26.20;10.10;;;;;;;6.32;46.73;102425.30;116873;1189;22974;-50
2022/03/17 08:11:11;;;;;;;21.50;10.80;;;;;;;6.48;46.59;102427.80;116902;1189;22923;-51
2022/03/17 08:13:41;;;;;;;23.00;10.40;;;;;;;6.62;46.49;102430.60;116884;1188;24248;-62
2022/03/17 08:16:11;;;;;;;14.30;6.70;;;;;;;6.71;46.35;102431.45;116771;1189;22835;-61
2022/03/17 08:18:41;;;;;;;10.30;5.40;;;;;;;6.74;46.30;102430.86;116923;1188;21846;-50
2022/03/17 08:21:09;;;;;;;7.70;4.50;;;;;;;6.78;46.35;102430.84;116754;1191;23480;-61
2022/03/17 08:23:37;;;;;;;9.10;4.20;;;;;;;6.85;46.17;102426.55;116834;1189;23622;-50
2022/03/17 08:26:07;;;;;;;6.30;3.50;;;;;;;6.95;46.52;102424.79;116906;1192;21888;-50
2022/03/17 08:28:37;;;;;;;10.90;4.10;;;;;;;7.10;46.52;102424.80;116971;1186;22006;-50
2022/03/17 08:31:05;;;;;;;5.50;3.00;;;;;;;7.29;46.61;102419.67;116942;1188;21898;-51
2022/03/17 08:33:34;;;;;;;6.90;2.90;;;;;;;7.44;46.30;102422.63;116821;1188;22995;-51
2022/03/17 08:36:05;;;;;;;5.90;3.50;;;;;;;7.47;46.03;102416.77;116889;1188;23531;-49
2022/03/17 08:38:35;;;;;;;5.10;3.20;;;;;;;7.41;45.89;102419.40;116952;1188;22467;-60
2022/03/17 08:41:05;;;;;;;5.20;2.60;;;;;;;7.50;46.04;102413.73;116891;1188;23558;-49
2022/03/17 08:43:33;;;;;;;4.60;2.70;;;;;;;7.67;46.16;102412.87;116958;1188;21958;-51
2022/03/17 08:49:18;;;;;;;5.10;2.70;;;;;;;8.11;46.17;102414.05;116903;1188;24840;-50
2022/03/17 08:51:49;;;;;;;5.90;3.40;;;;;;;8.25;45.93;102411.89;116897;1188;21857;-49
2022/03/17 08:54:20;;;;;;;12.70;4.00;;;;;;;8.36;46.09;102406.77;116869;1189;21862;-62
2022/03/17 08:56:59;;;;;;;12.00;5.30;;;;;;;8.57;46.07;102411.63;116886;1189;21869;-51
2022/03/17 08:59:31;;;;;;;23.60;8.80;;;;;;;8.72;45.92;102405.38;116768;1189;23503;-50
2022/03/17 09:02:01;;;;;;;9.90;4.80;;;;;;;8.81;45.53;102402.83;116872;1188;21887;-50
2022/03/17 09:04:30;;;;;;;8.60;4.50;;;;;;;8.82;45.60;102396.91;116786;1189;23939;-50
2022/03/17 09:06:59;;;;;;;6.50;3.70;;;;;;;9.01;45.84;102401.42;116785;1188;21864;-61
2022/03/17 09:09:29;;;;;;;6.40;2.80;;;;;;;9.16;45.61;102399.02;118920;1185;21819;-62
2022/03/17 09:11:57;;;;;;;6.00;2.40;;;;;;;9.37;45.64;102399.38;118888;1189;21799;-62
2022/03/17 09:14:26;;;;;;;6.70;2.60;;;;;;;9.53;45.48;102398.52;118904;1188;21839;-50
2022/03/17 09:16:54;;;;;;;5.10;2.70;;;;;;;9.68;45.68;102397.84;118886;1185;22280;-61
2022/03/17 09:19:24;;;;;;;5.70;2.50;;;;;;;9.90;45.64;102398.02;117142;1188;23479;-61
2022/03/17 09:21:53;;;;;;;6.60;2.50;;;;;;;10.16;45.72;102392.44;117202;1185;23487;-50
2022/03/17 09:24:22;;;;;;;7.70;3.10;;;;;;;10.28;45.15;102401.81;116942;1188;23453;-49
2022/03/17 09:26:50;;;;;;;5.40;3.10;;;;;;;10.22;45.05;102394.50;116909;1188;23464;-51
2022/03/17 09:29:18;;;;;;;7.20;2.80;;;;;;;10.15;44.96;102389.44;116920;1189;21968;-60
2022/03/17 09:31:49;;;;;;;8.40;2.90;;;;;;;10.13;44.92;102392.91;116902;1189;23494;-57
2022/03/17 09:34:17;;;;;;;5.50;3.10;;;;;;;10.14;44.82;102393.09;116851;1189;23707;-60
2022/03/17 09:36:45;;;;;;;3.90;2.30;;;;;;;10.16;44.99;102395.23;116907;1189;24186;-49
2022/03/17 09:42:03;;;;;;;7.00;2.60;;;;;;;10.04;44.59;102396.39;116786;1188;23483;-49
2022/03/17 09:44:32;;;;;;;4.40;2.20;;;;;;;10.03;44.74;102392.15;116863;1188;22941;-49
2022/03/17 09:47:02;;;;;;;5.10;2.70;;;;;;;10.15;45.02;102396.81;116878;1188;23490;-49
2022/03/17 09:49:33;;;;;;;4.40;2.60;;;;;;;10.33;44.99;102399.83;116862;1189;24388;-49
2022/03/17 09:52:05;;;;;;;5.30;2.40;;;;;;;10.41;44.76;102389.30;116858;1189;23332;-62
2022/03/17 09:54:35;;;;;;;4.50;2.50;;;;;;;10.61;44.83;102392.67;116929;1189;21862;-62
2022/03/17 09:57:04;;;;;;;6.90;2.50;;;;;;;10.76;44.73;102399.65;116859;1189;21852;-61
2022/03/17 09:59:33;;;;;;;4.90;2.70;;;;;;;10.87;44.55;102395.64;117012;1189;21948;-49
2022/03/17 10:02:05;;;;;;;6.00;2.80;;;;;;;10.90;44.20;102395.52;116877;1188;21860;-50
2022/03/17 10:04:35;;;;;;;3.70;2.40;;;;;;;10.90;44.28;102393.60;116743;1189;24242;-61
2022/03/17 10:07:07;;;;;;;;;;;;;;;11.10;44.60;102389.39;116877;1189;22941;-60
2022/03/17 10:09:39;;;;;;;3.80;2.20;;;;;;;11.34;44.88;102391.38;116861;1189;23468;-49
2022/03/17 10:12:11;;;;;;;11.90;2.60;;;;;;;11.63;44.82;102384.98;116826;1189;23532;-61
2022/03/17 10:14:53;;;;;;;3.80;2.10;;;;;;;11.91;44.65;102392.25;117186;1188;21852;-61
2022/03/17 10:17:36;;;;;;;4.30;2.50;;;;;;;12.05;44.42;102395.83;116868;1191;21885;-61
2022/03/17 10:20:22;;;;;;;9.70;2.50;;;;;;;12.09;43.99;102396.77;116844;1189;22711;-62
2022/03/17 10:22:56;;;;;;;5.20;2.50;;;;;;;11.90;43.71;102395.41;116837;1188;22050;-63
2022/03/17 10:25:35;;;;;;;5.10;2.60;;;;;;;11.73;43.75;102391.63;116789;1189;23444;-49
2022/03/17 10:28:15;;;;;;;5.20;2.70;;;;;;;11.57;43.77;102391.21;116935;1184;21857;-62
2022/03/17 10:30:44;;;;;;;4.40;2.60;;;;;;;11.42;43.46;102395.02;116771;1189;21865;-62
2022/03/17 10:33:20;;;;;;;4.00;2.40;;;;;;;11.10;43.06;102396.58;116832;1185;23570;-50
2022/03/17 10:35:49;;;;;;;4.90;2.60;;;;;;;10.69;42.91;102398.65;116873;1189;23130;-61
2022/03/17 10:38:19;;;;;;;8.50;3.00;;;;;;;10.45;43.28;102392.36;116871;1193;21856;-51
2022/03/17 10:41:04;;;;;;;3.80;2.20;;;;;;;10.51;43.47;102384.95;116874;1189;22736;-63
2022/03/17 10:43:35;;;;;;;6.50;2.60;;;;;;;10.77;43.74;102386.85;116888;1189;21904;-63
2022/03/17 10:46:20;;;;;;;4.10;2.50;;;;;;;10.85;43.40;102384.03;116833;1189;21857;-59
2022/03/17 10:48:55;;;;;;;5.70;2.60;;;;;;;10.85;43.18;102391.39;116888;1188;21847;-60
2022/03/17 10:51:33;;;;;;;7.00;2.70;;;;;;;10.75;43.13;102391.02;116863;1189;21860;-51
2022/03/17 10:54:07;;;;;;;4.60;2.40;;;;;;;10.63;43.06;102392.90;116839;1188;22635;-61
2022/03/17 10:56:37;;;;;;;4.40;2.40;;;;;;;10.51;42.99;102395.83;116878;1186;21869;-63
2022/03/17 10:59:10;;;;;;;4.00;2.00;;;;;;;10.66;43.53;102386.83;116802;1188;23579;-63
2022/03/17 11:01:48;;;;;;;6.30;2.70;;;;;;;11.00;43.76;102386.91;116891;1188;23467;-59
2022/03/17 11:04:19;;;;;;;5.60;2.30;;;;;;;11.30;43.41;102379.54;116800;1188;22920;-63
2022/03/17 11:06:54;;;;;;;4.80;2.70;;;;;;;11.49;43.58;102374.73;116914;1189;21878;-63
2022/03/17 11:09:25;;;;;;;3.90;2.50;;;;;;;11.86;43.45;102369.84;116772;1191;23560;-63
2022/03/17 11:11:56;;;;;;;4.60;2.70;;;;;;;12.16;43.44;102360.23;116801;1189;21867;-52
2022/03/17 11:14:25;;;;;;;3.30;2.00;;;;;;;12.45;43.49;102362.17;116760;1189;24009;-51
2022/03/17 11:16:55;;;;;;;4.90;2.60;;;;;;;12.62;43.47;102365.19;116893;1188;23573;-50
2022/03/17 11:19:23;;;;;;;4.50;2.50;;;;;;;12.54;42.86;102362.46;116881;1188;22930;-52
2022/03/17 11:22:05;;;;;;;4.00;2.40;;;;;;;12.35;42.54;102366.83;116939;1189;21855;-63
2022/03/17 11:24:33;;;;;;;4.90;2.40;;;;;;;12.10;42.36;102367.38;116809;1187;21868;-51
2022/03/17 11:27:09;;;;;;;4.50;2.50;;;;;;;11.69;42.28;102363.44;116841;1188;22940;-51
2022/03/17 11:29:45;;;;;;;5.20;2.80;;;;;;;11.50;42.27;102364.38;116740;1189;22444;-52
2022/03/17 11:32:30;;;;;;;4.90;2.60;;;;;;;11.39;42.38;102364.73;116944;1188;21878;-63
2022/03/17 11:35:28;;;;;;;6.50;2.30;;;;;;;11.34;42.46;102358.52;116947;1188;22931;-51
2022/03/17 11:38:18;;;;;;;7.10;3.30;;;;;;;11.55;42.83;102359.18;116858;1188;22203;-65
2022/03/17 11:41:02;;;;;;;7.60;2.90;;;;;;;11.83;42.89;102349.94;116858;1189;23468;-66
2022/03/17 11:43:39;;;;;;;11.20;2.60;;;;;;;12.00;43.03;102350.00;116932;1189;23574;-66
2022/03/17 11:46:12;;;;;;;6.10;2.90;;;;;;;12.32;43.12;102350.05;118939;1188;22301;-48
2022/03/17 11:48:41;;;;;;;5.80;2.90;;;;;;;12.52;42.99;102352.93;117345;1187;22973;-49
2022/03/17 11:51:11;;;;;;;5.30;2.80;;;;;;;12.44;42.42;102350.73;118940;1188;21791;-66